Time,TemperatureF,DewpointF,PressureIn,WindDirection,WindDirectionDegrees,WindSpeedMPH,WindSpeedGustMPH,Humidity,HourlyPrecipIn,Conditions,Clouds,dailyrainin,SoftwareType,DateUTC
2013-07-08 00:00:00,66.4,62.7,28.39,SW,225,0.0,0.0,88,0.00,CLR,,0.00,WeatherDisplay:10.37,2013-07-08 04:00:00,
2013-07-08 00:10:00,66.4,63.0,28.39,SW,225,0.0,0.0,89,0.00,CLR,,0.00,WeatherDisplay:10.37,2013-07-08 04:10:00,
2013-07-08 00:20:00,66.2,63.2,28.39,SW,225,0.0,0.0,90,0.00,CLR,,0.00,WeatherDisplay:10.37,2013-07-08 04:20:00,
2013-07-08 00:30:00,65.8,62.8,28.39,SW,225,0.0,0.0,90,0.00,CLR,,0.00,WeatherDisplay:10.37,2013-07-08 04:30:00,
2013-07-08 00:40:00,65.7,62.6,28.39,SW,225,0.0,0.0,90,0.00,CLR,,0.00,WeatherDisplay:10.37,2013-07-08 04:40:00,
2013-07-08 00:50:00,65.5,62.8,28.39,SW,225,0.0,0.0,91,0.00,CLR,,0.00,WeatherDisplay:10.37,2013-07-08 04:50:00,
2013-07-08 01:00:00,65.5,62.8,28.39,SW,225,0.0,0.0,91,0.00,CLR,,0.00,WeatherDisplay:10.37,2013-07-08 05:00:00,
2013-07-08 01:10:00,65.8,63.4,28.39,SSW,212,0.0,0.0,92,0.00,CLR,,0.00,WeatherDisplay:10.37,2013-07-08 05:10:00,
2013-07-08 01:20:00,65.8,63.8,28.36,SSW,202,0.0,0.0,93,0.00,CLR,,0.00,WeatherDisplay:10.37,2013-07-08 05:20:00,
2013-07-08 01:30:00,65.8,63.8,28.36,SW,225,0.0,0.0,93,0.00,CLR,,0.00,WeatherDisplay:10.37,2013-07-08 05:30:00,
2013-07-08 01:40:00,66.0,63.9,28.36,SW,225,0.0,0.0,93,0.00,CLR,,0.00,WeatherDisplay:10.37,2013-07-08 05:40:00,
2013-07-08 01:50:00,66.0,64.2,28.36,SW,225,0.0,0.0,94,0.00,CLR,,0.00,WeatherDisplay:10.37,2013-07-08 05:50:00,
2013-07-08 02:00:00,66.2,64.4,28.36,SW,214,0.0,0.0,94,0.00,CLR,,0.00,WeatherDisplay:10.37,2013-07-08 06:00:00,
2013-07-08 02:10:00,66.2,64.4,28.36,SW,218,0.0,0.0,94,0.00,CLR,,0.00,WeatherDisplay:10.37,2013-07-08 06:10:00,
2013-07-08 02:20:00,66.4,64.6,28.33,SW,225,0.0,0.0,94,0.00,CLR,,0.00,WeatherDisplay:10.37,2013-07-08 06:20:00,
2013-07-08 02:30:00,66.0,64.2,28.33,SW,225,0.0,0.0,94,0.00,CLR,,0.00,WeatherDisplay:10.37,2013-07-08 06:30:00,
2013-07-08 02:40:00,65.7,63.6,28.33,SW,225,0.0,0.0,93,0.00,CLR,,0.00,WeatherDisplay:10.37,2013-07-08 06:40:00,
2013-07-08 02:50:00,65.3,63.2,28.36,NNW,330,0.0,0.0,93,0.00,CLR,,0.00,WeatherDisplay:10.37,2013-07-08 06:50:00,
2013-07-08 03:00:00,65.1,63.3,28.36,NNE,22,0.0,0.0,94,0.00,CLR,,0.00,WeatherDisplay:10.37,2013-07-08 07:00:00,
2013-07-08 03:10:00,65.0,63.3,28.39,NNE,22,0.0,0.0,94,0.00,CLR,,0.00,WeatherDisplay:10.37,2013-07-08 07:10:00,
2013-07-08 03:20:00,64.9,63.5,28.39,NNE,22,0.0,0.0,95,0.00,CLR,,0.00,WeatherDisplay:10.37,2013-07-08 07:20:00,
2013-07-08 03:30:00,64.9,63.5,28.39,NNE,22,0.0,0.0,95,0.00,CLR,,0.00,WeatherDisplay:10.37,2013-07-08 07:30:00,
2013-07-08 03:40:00,64.9,63.8,28.39,SW,234,0.0,0.0,96,0.00,CLR,,0.00,WeatherDisplay:10.37,2013-07-08 07:40:00,
2013-07-08 03:50:00,64.9,63.8,28.36,SW,225,0.0,0.0,96,0.00,CLR,,0.00,WeatherDisplay:10.37,2013-07-08 07:50:00,
2013-07-08 04:00:00,64.9,63.8,28.36,SW,225,0.0,0.0,96,0.00,CLR,,0.00,WeatherDisplay:10.37,2013-07-08 08:00:00,
2013-07-08 04:10:00,64.8,63.6,28.36,SW,225,0.0,0.0,96,0.00,CLR,,0.00,WeatherDisplay:10.37,2013-07-08 08:10:00,
2013-07-08 04:20:00,64.9,63.8,28.36,SW,225,0.0,0.0,96,0.00,CLR,,0.00,WeatherDisplay:10.37,2013-07-08 08:20:00,
2013-07-08 04:30:00,65.3,64.4,28.36,SW,233,0.0,0.0,97,0.00,CLR,,0.00,WeatherDisplay:10.37,2013-07-08 08:30:00,
2013-07-08 04:40:00,65.5,64.6,28.36,WSW,248,0.0,0.0,97,0.00,CLR,,0.00,WeatherDisplay:10.37,2013-07-08 08:40:00,
2013-07-08 04:50:00,65.6,64.7,28.36,WSW,248,0.0,0.0,97,0.00,CLR,,0.00,WeatherDisplay:10.37,2013-07-08 08:50:00,
2013-07-08 05:00:00,65.8,65.8,28.36,WSW,248,0.0,0.0,100,0.00,CLR,,0.00,WeatherDisplay:10.37,2013-07-08 09:00:00,
2013-07-08 05:10:00,66.0,66.0,28.36,WNW,283,0.0,0.0,100,0.00,CLR,,0.00,WeatherDisplay:10.37,2013-07-08 09:10:00,
2013-07-08 05:20:00,66.0,66.0,28.36,SW,225,0.0,0.0,100,0.00,CLR,,0.00,WeatherDisplay:10.37,2013-07-08 09:20:00,
2013-07-08 05:30:00,66.0,66.0,28.36,SSW,211,0.0,0.0,100,0.00,CLR,,0.00,WeatherDisplay:10.37,2013-07-08 09:30:00,
2013-07-08 05:40:00,66.0,66.0,28.36,SW,216,0.0,0.0,100,0.00,CLR,,0.00,WeatherDisplay:10.37,2013-07-08 09:40:00,
2013-07-08 05:50:00,66.0,66.0,28.36,SSW,212,0.0,0.0,100,0.00,CLR,,0.00,WeatherDisplay:10.37,2013-07-08 09:50:00,
2013-07-08 06:00:00,66.2,66.2,28.36,SW,215,0.0,0.0,100,0.00,CLR,,0.00,WeatherDisplay:10.37,2013-07-08 10:00:00,
2013-07-08 06:10:00,66.1,66.1,28.36,SW,234,0.0,0.0,100,0.00,CLR,,0.00,WeatherDisplay:10.37,2013-07-08 10:10:00,
2013-07-08 06:20:00,66.0,66.0,28.36,SW,214,0.0,0.0,100,0.00,CLR,,0.00,WeatherDisplay:10.37,2013-07-08 10:20:00,
2013-07-08 06:30:00,66.2,66.2,28.36,SSW,207,0.0,0.0,100,0.00,CLR,,0.00,WeatherDisplay:10.37,2013-07-08 10:30:00,
2013-07-08 06:40:00,66.3,66.3,28.36,SW,230,0.0,0.0,100,0.00,CLR,,0.00,WeatherDisplay:10.37,2013-07-08 10:40:00,
2013-07-08 06:50:00,66.6,66.6,28.36,WSW,248,0.0,0.0,100,0.00,CLR,,0.00,WeatherDisplay:10.37,2013-07-08 10:50:00,
2013-07-08 07:00:00,66.6,66.6,28.36,WNW,284,0.0,0.0,100,0.00,CLR,,0.00,WeatherDisplay:10.37,2013-07-08 11:00:00,
2013-07-08 07:10:00,66.7,66.7,28.36,NNW,338,0.0,0.0,100,0.00,CLR,,0.00,WeatherDisplay:10.37,2013-07-08 11:10:00,
2013-07-08 07:20:00,66.6,66.6,28.36,WNW,285,0.0,0.0,100,0.00,CLR,,0.00,WeatherDisplay:10.37,2013-07-08 11:20:00,
2013-07-08 07:30:00,66.7,66.7,28.36,WSW,254,0.0,0.0,100,0.00,CLR,,0.00,WeatherDisplay:10.37,2013-07-08 11:30:00,
2013-07-08 07:40:00,67.1,67.1,28.36,WSW,248,0.0,0.0,100,0.00,CLR,,0.00,WeatherDisplay:10.37,2013-07-08 11:40:00,
2013-07-08 07:50:00,67.5,67.5,28.36,SW,226,0.0,0.0,100,0.00,CLR,,0.00,WeatherDisplay:10.37,2013-07-08 11:50:00,
2013-07-08 08:00:00,67.8,67.8,28.36,SW,226,0.0,0.0,100,0.00,CLR,,0.00,WeatherDisplay:10.37,2013-07-08 12:00:00,
2013-07-08 08:10:00,68.0,68.0,28.39,SSW,207,0.0,2.0,100,0.00,CLR,,0.00,WeatherDisplay:10.37,2013-07-08 12:10:00,
2013-07-08 08:20:00,68.0,67.1,28.39,SW,217,0.0,0.0,97,0.00,CLR,,0.00,WeatherDisplay:10.37,2013-07-08 12:20:00,
2013-07-08 08:30:00,68.2,67.3,28.39,SW,225,0.0,2.0,97,0.00,CLR,,0.00,WeatherDisplay:10.37,2013-07-08 12:30:00,
2013-07-08 08:40:00,68.4,67.5,28.39,SSW,202,0.0,2.0,97,0.00,CLR,,0.00,WeatherDisplay:10.37,2013-07-08 12:40:00,
2013-07-08 08:50:00,68.7,67.5,28.39,SSW,208,0.0,2.0,96,0.00,CLR,,0.00,WeatherDisplay:10.37,2013-07-08 12:50:00,
2013-07-08 09:00:00,68.7,67.5,28.39,SW,218,0.0,3.0,96,0.00,CLR,,0.00,WeatherDisplay:10.37,2013-07-08 13:00:00,
2013-07-08 09:10:00,68.9,67.4,28.39,WSW,246,0.0,2.0,95,0.00,CLR,,0.00,WeatherDisplay:10.37,2013-07-08 13:10:00,
2013-07-08 09:20:00,69.3,67.1,28.39,SW,230,0.0,3.0,93,0.00,CLR,,0.00,WeatherDisplay:10.37,2013-07-08 13:20:00,
2013-07-08 09:30:00,69.9,66.5,28.39,SW,224,0.0,3.0,89,0.00,CLR,,0.00,WeatherDisplay:10.37,2013-07-08 13:30:00,
2013-07-08 09:40:00,70.9,67.2,28.39,WSW,241,0.0,2.0,88,0.00,CLR,,0.00,WeatherDisplay:10.37,2013-07-08 13:40:00,
2013-07-08 09:50:00,71.1,66.3,28.39,SSW,210,0.0,2.0,85,0.00,CLR,,0.00,WeatherDisplay:10.37,2013-07-08 13:50:00,
2013-07-08 10:00:00,70.7,62.8,28.39,SSW,211,1.0,3.0,76,0.00,CLR,,0.00,WeatherDisplay:10.37,2013-07-08 14:00:00,
2013-07-08 10:10:00,71.2,63.7,28.39,SW,232,2.0,3.0,77,0.00,CLR,,0.00,WeatherDisplay:10.37,2013-07-08 14:10:00,
2013-07-08 10:20:00,72.4,62.8,28.39,SW,214,5.0,6.0,72,0.00,CLR,,0.00,WeatherDisplay:10.37,2013-07-08 14:20:00,
2013-07-08 10:30:00,73.2,62.8,28.39,SSW,213,1.0,4.0,70,0.00,CLR,,0.00,WeatherDisplay:10.37,2013-07-08 14:30:00,
2013-07-08 10:40:00,73.1,61.5,28.39,SW,220,1.0,5.0,67,0.00,CLR,,0.00,WeatherDisplay:10.37,2013-07-08 14:40:00,
2013-07-08 10:50:00,73.2,62.0,28.39,SSW,193,2.0,4.0,68,0.00,CLR,,0.00,WeatherDisplay:10.37,2013-07-08 14:50:00,
2013-07-08 11:00:00,73.4,61.8,28.39,South,184,2.0,3.0,67,0.00,CLR,,0.00,WeatherDisplay:10.37,2013-07-08 15:00:00,
2013-07-08 11:10:00,74.1,61.2,28.42,SSW,193,2.0,4.0,64,0.00,CLR,,0.00,WeatherDisplay:10.37,2013-07-08 15:10:00,
2013-07-08 11:20:00,74.5,62.4,28.42,SSW,206,3.0,4.0,66,0.00,CLR,,0.00,WeatherDisplay:10.37,2013-07-08 15:20:00,
2013-07-08 11:30:00,76.3,58.9,28.42,SSW,202,3.0,3.0,55,0.00,CLR,,0.00,WeatherDisplay:10.37,2013-07-08 15:30:00,
2013-07-08 11:40:00,75.9,56.5,28.42,SSW,202,1.0,3.0,51,0.00,CLR,,0.00,WeatherDisplay:10.37,2013-07-08 15:40:00,
2013-07-08 11:50:00,75.9,55.9,28.42,West,269,1.0,2.0,50,0.00,CLR,,0.00,WeatherDisplay:10.37,2013-07-08 15:50:00,
2013-07-08 12:00:00,76.3,59.9,28.42,WNW,290,0.0,2.0,57,0.00,CLR,,0.00,WeatherDisplay:10.37,2013-07-08 16:00:00,
2013-07-08 12:10:00,76.9,60.0,28.42,WNW,292,0.0,1.0,56,0.00,CLR,,0.00,WeatherDisplay:10.37,2013-07-08 16:10:00,
2013-07-08 12:20:00,77.8,56.6,28.42,WNW,291,0.0,4.0,48,0.00,CLR,,0.00,WeatherDisplay:10.37,2013-07-08 16:20:00,
2013-07-08 12:30:00,77.5,52.6,28.42,WSW,248,1.0,4.0,42,0.00,CLR,,0.00,WeatherDisplay:10.37,2013-07-08 16:30:00,
2013-07-08 12:40:00,77.7,52.8,28.42,WSW,248,1.0,4.0,42,0.00,CLR,,0.00,WeatherDisplay:10.37,2013-07-08 16:40:00,
2013-07-08 12:50:00,78.6,54.2,28.42,WSW,248,1.0,4.0,43,0.00,CLR,,0.00,WeatherDisplay:10.37,2013-07-08 16:50:00,
2013-07-08 13:00:00,78.1,53.1,28.42,WSW,248,1.0,4.0,42,0.00,CLR,,0.00,WeatherDisplay:10.37,2013-07-08 17:00:00,
2013-07-08 13:10:00,78.7,53.7,28.42,WSW,247,1.0,4.0,42,0.00,CLR,,0.00,WeatherDisplay:10.37,2013-07-08 17:10:00,
2013-07-08 13:20:00,79.6,53.2,28.42,SW,225,0.0,0.0,40,0.00,CLR,,0.00,WeatherDisplay:10.37,2013-07-08 17:20:00,
2013-07-08 13:30:00,79.2,52.1,28.42,WSW,254,0.0,2.0,39,0.00,CLR,,0.00,WeatherDisplay:10.37,2013-07-08 17:30:00,
2013-07-08 13:40:00,79.9,53.5,28.42,SSW,206,3.0,6.0,40,0.00,CLR,,0.00,WeatherDisplay:10.37,2013-07-08 17:40:00,
2013-07-08 13:50:00,79.5,52.4,28.42,WNW,292,1.0,1.0,39,0.00,CLR,,0.00,WeatherDisplay:10.37,2013-07-08 17:50:00,
2013-07-08 14:20:00,80.8,50.6,28.42,WNW,292,1.0,1.0,35,0.00,CLR,,0.00,WeatherDisplay:10.37,2013-07-08 18:20:00,
2013-07-08 14:30:00,81.6,52.0,28.42,West,275,1.0,3.0,36,0.00,CLR,,0.00,WeatherDisplay:10.37,2013-07-08 18:30:00,
2013-07-08 14:40:00,82.3,54.9,28.42,SSW,207,3.0,6.0,39,0.00,CLR,,0.00,WeatherDisplay:10.37,2013-07-08 18:40:00,
2013-07-08 15:00:00,82.2,49.4,28.42,SSW,202,2.0,5.0,32,0.00,CLR,,0.00,WeatherDisplay:10.37,2013-07-08 19:00:00,
2013-07-08 15:20:00,81.9,49.1,28.45,SSW,202,1.0,3.0,32,0.00,CLR,,0.00,WeatherDisplay:10.37,2013-07-08 19:20:00,
2013-07-08 15:40:00,83.3,47.7,28.42,West,269,1.0,2.0,29,0.00,CLR,,0.00,WeatherDisplay:10.37,2013-07-08 19:40:00,
2013-07-08 15:50:00,83.0,45.6,28.42,SW,229,2.0,9.0,27,0.00,CLR,,0.00,WeatherDisplay:10.37,2013-07-08 19:50:00,
2013-07-08 16:00:00,84.2,43.5,28.42,SW,219,2.0,9.0,24,0.00,CLR,,0.00,WeatherDisplay:10.37,2013-07-08 20:00:00,
2013-07-08 16:30:00,85.2,44.4,28.42,SW,234,2.0,6.0,24,0.00,CLR,,0.00,WeatherDisplay:10.37,2013-07-08 20:30:00,
2013-07-08 16:40:00,84.1,43.4,28.42,WSW,246,3.0,6.0,24,0.00,CLR,,0.00,WeatherDisplay:10.37,2013-07-08 20:40:00,
2013-07-08 16:50:00,85.2,44.4,28.42,SSW,198,1.0,5.0,24,0.00,CLR,,0.00,WeatherDisplay:10.37,2013-07-08 20:50:00,
2013-07-08 17:00:00,84.5,42.6,28.42,SSW,197,2.0,2.0,23,0.00,CLR,,0.00,WeatherDisplay:10.37,2013-07-08 21:00:00,
2013-07-08 17:20:00,84.0,46.4,28.39,WSW,248,1.0,1.0,27,0.00,CLR,,0.00,WeatherDisplay:10.37,2013-07-08 21:20:00,
2013-07-08 17:40:00,85.6,44.7,28.39,WSW,248,1.0,1.0,24,0.00,CLR,,0.00,WeatherDisplay:10.37,2013-07-08 21:40:00,
2013-07-08 17:50:00,85.9,45.0,28.42,SSW,212,1.0,3.0,24,0.00,CLR,,0.00,WeatherDisplay:10.37,2013-07-08 21:50:00,
2013-07-08 18:10:00,84.6,46.9,28.42,SSW,201,2.0,3.0,27,0.00,CLR,,0.00,WeatherDisplay:10.37,2013-07-08 22:10:00,
2013-07-08 18:20:00,84.3,46.6,28.39,SSW,211,2.0,4.0,27,0.00,CLR,,0.00,WeatherDisplay:10.37,2013-07-08 22:20:00,
2013-07-08 18:30:00,83.5,47.9,28.39,SW,229,0.0,2.0,29,0.00,CLR,,0.00,WeatherDisplay:10.37,2013-07-08 22:30:00,
2013-07-08 18:50:00,81.6,48.0,28.42,SW,218,0.0,2.0,31,0.00,CLR,,0.00,WeatherDisplay:10.37,2013-07-08 22:50:00,
2013-07-08 19:00:00,80.6,48.8,28.42,WSW,242,0.0,0.0,33,0.00,CLR,,0.00,WeatherDisplay:10.37,2013-07-08 23:00:00,
2013-07-08 19:10:00,79.5,51.6,28.39,WSW,248,0.0,0.0,38,0.00,CLR,,0.00,WeatherDisplay:10.37,2013-07-08 23:10:00,
2013-07-08 19:20:00,78.5,53.5,28.39,WSW,248,0.0,0.0,42,0.00,CLR,,0.00,WeatherDisplay:10.37,2013-07-08 23:20:00,
2013-07-08 19:40:00,77.9,54.8,28.39,West,273,0.0,0.0,45,0.00,CLR,,0.00,WeatherDisplay:10.37,2013-07-08 23:40:00,
2013-07-08 19:50:00,77.3,54.3,28.42,West,270,0.0,0.0,45,0.00,CLR,,0.00,WeatherDisplay:10.37,2013-07-08 23:50:00,
2013-07-08 20:20:00,74.9,56.1,28.42,NNW,335,1.0,2.0,52,0.00,CLR,,0.00,WeatherDisplay:10.37,2013-07-09 00:20:00,
2013-07-08 20:30:00,74.3,55.5,28.42,NNE,18,0.0,0.0,52,0.00,CLR,,0.00,WeatherDisplay:10.37,2013-07-09 00:30:00,
2013-07-08 20:40:00,73.5,55.3,28.42,WSW,257,0.0,0.0,53,0.00,CLR,,0.00,WeatherDisplay:10.37,2013-07-09 00:40:00,
2013-07-08 20:50:00,72.8,55.7,28.42,WSW,252,0.0,0.0,55,0.00,CLR,,0.00,WeatherDisplay:10.37,2013-07-09 00:50:00,
2013-07-08 21:00:00,72.1,55.1,28.42,West,270,0.0,0.0,55,0.00,CLR,,0.00,WeatherDisplay:10.37,2013-07-09 01:00:00,
2013-07-08 21:10:00,71.6,56.0,28.42,West,270,0.0,0.0,58,0.00,CLR,,0.00,WeatherDisplay:10.37,2013-07-09 01:10:00,
2013-07-08 21:20:00,71.1,56.0,28.42,West,270,0.0,0.0,59,0.00,CLR,,0.00,WeatherDisplay:10.37,2013-07-09 01:20:00,
2013-07-08 21:30:00,70.5,56.0,28.42,NNW,333,0.0,0.0,60,0.00,CLR,,0.00,WeatherDisplay:10.37,2013-07-09 01:30:00,
2013-07-08 21:40:00,70.2,55.6,28.42,NNW,338,0.0,0.0,60,0.00,CLR,,0.00,WeatherDisplay:10.37,2013-07-09 01:40:00,
2013-07-08 21:50:00,69.8,55.7,28.42,NNW,338,0.0,0.0,61,0.00,CLR,,0.00,WeatherDisplay:10.37,2013-07-09 01:50:00,
2013-07-08 22:00:00,69.4,56.7,28.42,North,353,1.0,2.0,64,0.00,CLR,,0.00,WeatherDisplay:10.37,2013-07-09 02:00:00,
2013-07-08 22:20:00,68.8,57.4,28.45,NNE,22,0.0,0.0,67,0.00,CLR,,0.00,WeatherDisplay:10.37,2013-07-09 02:20:00,
2013-07-08 22:30:00,68.4,56.1,28.45,NNE,22,0.0,0.0,65,0.00,CLR,,0.00,WeatherDisplay:10.37,2013-07-09 02:30:00,
2013-07-08 23:00:00,67.8,56.9,28.45,North,0,0.0,0.0,68,0.00,CLR,,0.00,WeatherDisplay:10.37,2013-07-09 03:00:00,
2013-07-08 23:10:00,67.6,58.3,28.45,NNE,20,1.0,2.0,72,0.00,CLR,,0.00,WeatherDisplay:10.37,2013-07-09 03:10:00,
2013-07-08 23:20:00,67.6,58.7,28.45,NE,45,0.0,2.0,73,0.00,CLR,,0.00,WeatherDisplay:10.37,2013-07-09 03:20:00,